Air Quality Table

TIMESTAMP NO2 SO2 O3 PM10 PM2.5 CO TEMP HUM AIRPRES WS WD NO BENZENE
2021-10-17 17:00 25.81 µg/m3 0.34 µg/m3 80.12 µg/m3 18.04 µg/m3 6.82 µg/m3 0.26 mg/m3 22.52 °C 55.41 % 1,016.97 mbar 1.76 m/s 311.57 Deg 3.21 µg/m3 0.7 µg/m3
2021-10-17 16:00 20.4 µg/m3 0.3 µg/m3 84.97 µg/m3 18.67 µg/m3 7.14 µg/m3 0.24 mg/m3 22.96 °C 55.43 % 1,016.70 mbar 2.13 m/s 312.95 Deg 4.16 µg/m3 0.94 µg/m3
2021-10-17 15:00 19.16 µg/m3 0.26 µg/m3 82.27 µg/m3 26.79 µg/m3 8.43 µg/m3 0.24 mg/m3 23.61 °C 48.82 % 1,016.48 mbar 1.87 m/s 273.22 Deg 3.5 µg/m3 0.61 µg/m3
2021-10-17 14:00 13.24 µg/m3 0.28 µg/m3 84.9 µg/m3 27.34 µg/m3 9.41 µg/m3 0.22 mg/m3 23.89 °C 49.73 % 1,016.67 mbar 1.78 m/s 246.28 Deg 1.69 µg/m3 0.76 µg/m3
2021-10-17 13:00 12.11 µg/m3 0.3 µg/m3 85.25 µg/m3 27.1 µg/m3 8.6 µg/m3 0.23 mg/m3 23.41 °C 55.7 % 1,017.32 mbar 2.11 m/s 223.22 Deg 3.17 µg/m3 0.49 µg/m3
2021-10-17 12:00 13.02 µg/m3 0.34 µg/m3 83.47 µg/m3 28.04 µg/m3 9.01 µg/m3 0.23 mg/m3 23.2 °C 56.38 % 1,017.65 mbar 2.25 m/s 223.27 Deg 3.04 µg/m3 0.84 µg/m3
2021-10-17 11:00 14.36 µg/m3 0.33 µg/m3 82.83 µg/m3 30.1 µg/m3 8.84 µg/m3 0.24 mg/m3 23.04 °C 54.62 % 1,017.85 mbar 1.91 m/s 220.63 Deg 1.84 µg/m3 0.82 µg/m3
2021-10-17 10:00 17.93 µg/m3 0.37 µg/m3 79.47 µg/m3 22.01 µg/m3 7.52 µg/m3 0.3 mg/m3 22.36 °C 58.94 % 1,017.91 mbar 1.04 m/s 204.25 Deg 4.52 µg/m3 1.21 µg/m3
2021-10-17 09:00 39.73 µg/m3 0.58 µg/m3 52.28 µg/m3 33.18 µg/m3 12.06 µg/m3 0.44 mg/m3 20.96 °C 64.3 % 1,017.76 mbar 0.83 m/s 171.13 Deg 16.23 µg/m3 3.34 µg/m3
2021-10-17 08:00 46.82 µg/m3 0.65 µg/m3 23.97 µg/m3 42.42 µg/m3 16.7 µg/m3 0.52 mg/m3 19.09 °C 71.16 % 1,017.30 mbar 0.67 m/s 209.57 Deg 14.34 µg/m3 3.23 µg/m3
2021-10-17 07:00 50.39 µg/m3 0.75 µg/m3 7.8 µg/m3 21.54 µg/m3 14.37 µg/m3 0.53 mg/m3 17.5 °C 77.5 % 1,017.07 mbar 0.83 m/s 232.58 Deg 21.23 µg/m3 3.57 µg/m3
2021-10-17 06:00 47.05 µg/m3 0.7 µg/m3 4.66 µg/m3 24.22 µg/m3 16.18 µg/m3 0.49 mg/m3 17.53 °C 77.75 % 1,016.78 mbar 0.87 m/s 229.98 Deg 19.9 µg/m3 3.1 µg/m3
2021-10-17 05:00 40 µg/m3 0.46 µg/m3 12.8 µg/m3 27.21 µg/m3 18.46 µg/m3 0.35 mg/m3 17.82 °C 76.5 % 1,016.70 mbar 0.68 m/s 238.48 Deg 4.74 µg/m3 2.08 µg/m3
2021-10-17 04:00 36.51 µg/m3 0.53 µg/m3 17.41 µg/m3 23.75 µg/m3 16 µg/m3 0.32 mg/m3 18.18 °C 75.26 % 1,016.80 mbar 0.66 m/s 236.8 Deg 7.07 µg/m3 1.84 µg/m3
2021-10-17 03:00 37.84 µg/m3 0.44 µg/m3 18.99 µg/m3 19.74 µg/m3 13.21 µg/m3 0.41 mg/m3 18.6 °C 73.76 % 1,017.07 mbar 0.7 m/s 246.33 Deg 3.76 µg/m3 2.86 µg/m3
2021-10-17 02:00 54.8 µg/m3 0.56 µg/m3 11.7 µg/m3 26.95 µg/m3 15.71 µg/m3 0.55 mg/m3 19.34 °C 70.17 % 1,017.26 mbar 0.59 m/s 236.4 Deg 8.99 µg/m3 2.99 µg/m3
2021-10-17 01:00 51.28 µg/m3 0.42 µg/m3 24.19 µg/m3 38.65 µg/m3 15.92 µg/m3 0.44 mg/m3 19.74 °C 68.05 % 1,017.27 mbar 0.46 m/s 226.72 Deg 3.74 µg/m3 1.76 µg/m3
2021-10-17 00:00 43.18 µg/m3 0.46 µg/m3 39.9 µg/m3 30.51 µg/m3 14.16 µg/m3 0.42 mg/m3 19.88 °C 67.37 % 1,017.35 mbar 0.78 m/s 229.73 Deg 2.98 µg/m3 2.15 µg/m3
2021-10-16 23:00 58.64 µg/m3 0.63 µg/m3 18.97 µg/m3 37.71 µg/m3 14.77 µg/m3 0.53 mg/m3 19.75 °C 68.54 % 1,017.45 mbar 0.6 m/s 225.4 Deg 11.38 µg/m3 3.13 µg/m3
2021-10-16 22:00 46.91 µg/m3 0.44 µg/m3 36.15 µg/m3 29.59 µg/m3 11.67 µg/m3 0.41 mg/m3 19.99 °C 66.24 % 1,017.53 mbar 0.64 m/s 212.92 Deg 2.71 µg/m3 2.13 µg/m3
2021-10-16 21:00 49.02 µg/m3 0.39 µg/m3 40.94 µg/m3 29.46 µg/m3 11.78 µg/m3 0.42 mg/m3 20.19 °C 64.66 % 1,017.50 mbar 0.67 m/s 245.7 Deg 2.94 µg/m3 1.84 µg/m3
2021-10-16 20:00 48.54 µg/m3 0.42 µg/m3 45.21 µg/m3 33.81 µg/m3 13.47 µg/m3 0.4 mg/m3 20.44 °C 63.8 % 1,017.17 mbar 1.15 m/s 249.62 Deg 5.11 µg/m3 2.02 µg/m3

It is to be noted that the data is provisional and subject to quality assurance procedures. For validated data kindly refer your request to contact.air@era.org.mt